createdAt,value
2018-05-13T00:00:21.910Z,15.13
2018-05-13T00:05:17.824Z,18.23
2018-05-13T00:10:13.640Z,17.53
2018-05-13T00:15:09.502Z,17.37
2018-05-13T00:20:05.435Z,18.10
2018-05-13T00:25:01.290Z,17.63
2018-05-13T00:29:57.159Z,19.30
2018-05-13T00:34:53.049Z,17.77
2018-05-13T00:39:48.981Z,18.83
2018-05-13T00:44:44.830Z,19.33
2018-05-13T00:49:40.678Z,19.50
2018-05-13T00:54:42.616Z,19.13
2018-05-13T00:59:38.448Z,17.33
2018-05-13T01:04:34.346Z,17.63
2018-05-13T01:09:30.261Z,19.00
2018-05-13T01:14:26.039Z,19.23
2018-05-13T01:19:21.921Z,19.70
2018-05-13T01:24:17.789Z,19.00
2018-05-13T01:29:13.653Z,19.43
2018-05-13T01:34:09.512Z,19.70
2018-05-13T01:39:05.501Z,20.20
2018-05-13T01:44:01.331Z,20.63
2018-05-13T01:49:04.221Z,22.03
2018-05-13T01:54:00.061Z,21.17
2018-05-13T01:58:55.909Z,21.03
2018-05-13T02:03:51.753Z,21.83
2018-05-13T02:08:47.600Z,21.80
2018-05-13T02:13:43.447Z,20.97
2018-05-13T02:18:39.390Z,21.90
2018-05-13T02:23:35.241Z,25.03
2018-05-13T02:28:31.104Z,21.40
2018-05-13T02:33:26.996Z,21.20
2018-05-13T02:38:22.867Z,21.97
2018-05-13T02:43:18.723Z,23.57
2018-05-13T02:48:14.582Z,22.37
2018-05-13T02:53:10.458Z,23.73
2018-05-13T02:58:06.333Z,22.80
2018-05-13T03:03:02.162Z,22.67
2018-05-13T03:07:58.003Z,22.87
2018-05-13T03:12:53.865Z,24.13
2018-05-13T03:17:49.726Z,22.87
2018-05-13T03:22:46.438Z,24.20
2018-05-13T03:27:42.339Z,23.40
2018-05-13T03:32:38.180Z,23.73
2018-05-13T03:37:34.018Z,23.43
2018-05-13T03:42:29.891Z,22.87
2018-05-13T03:47:25.755Z,23.43
2018-05-13T03:52:21.653Z,23.07
2018-05-13T03:57:17.528Z,23.07
2018-05-13T04:02:13.405Z,21.20
2018-05-13T04:07:09.240Z,20.97
2018-05-13T04:12:11.251Z,19.03
2018-05-13T04:17:07.113Z,21.00
2018-05-13T04:22:02.989Z,25.57
2018-05-13T04:26:58.848Z,21.67
2018-05-13T04:31:54.693Z,22.93
2018-05-13T04:36:50.556Z,22.27
2018-05-13T04:41:46.440Z,24.30
2018-05-13T04:46:42.369Z,22.43
2018-05-13T04:51:38.250Z,20.83
2018-05-13T04:56:34.196Z,20.80
2018-05-13T05:01:30.084Z,23.27
2018-05-13T05:06:25.940Z,21.87
2018-05-13T05:11:21.821Z,21.40
2018-05-13T05:16:17.715Z,20.77
2018-05-13T05:21:13.612Z,22.93
2018-05-13T05:26:09.600Z,24.50
2018-05-13T05:31:05.459Z,25.07
2018-05-13T05:36:01.355Z,24.13
2018-05-13T05:40:57.234Z,24.67
2018-05-13T05:45:53.099Z,23.10
2018-05-13T05:50:48.953Z,23.43
2018-05-13T05:55:44.853Z,23.30
2018-05-13T06:00:40.724Z,23.17
2018-05-13T06:05:36.626Z,21.53
2018-05-13T06:10:32.475Z,22.47
2018-05-13T06:15:28.336Z,21.33
2018-05-13T06:20:24.209Z,21.40
2018-05-13T06:25:20.162Z,18.77
2018-05-13T06:30:15.947Z,19.90
2018-05-13T06:35:11.843Z,20.53
2018-05-13T06:40:07.701Z,23.63
2018-05-13T06:45:03.560Z,18.40
2018-05-13T06:49:59.433Z,19.53
2018-05-13T06:54:55.332Z,18.00
2018-05-13T06:59:51.214Z,17.20
2018-05-13T07:04:47.103Z,18.80
2018-05-13T07:09:43.001Z,16.80
2018-05-13T07:14:38.882Z,16.93
2018-05-13T07:19:34.777Z,15.27
2018-05-13T07:24:30.661Z,12.30
2018-05-13T07:29:26.504Z,20.47
2018-05-13T07:34:22.411Z,11.45
2018-05-13T07:39:18.315Z,11.23
2018-05-13T07:44:14.172Z,10.30
2018-05-13T07:49:10.080Z,20.52
2018-05-13T07:54:05.940Z,10.82
2018-05-13T07:59:01.819Z,12.02
2018-05-13T08:03:57.699Z,11.12
2018-05-13T08:08:53.576Z,10.32
2018-05-13T08:13:49.399Z,10.27
2018-05-13T08:18:45.293Z,21.83
2018-05-13T08:23:41.177Z,11.70
2018-05-13T08:28:37.063Z,10.13
2018-05-13T08:33:32.984Z,11.45
2018-05-13T08:38:28.848Z,9.75
2018-05-13T08:43:24.700Z,11.12
2018-05-13T08:48:20.598Z,16.27
2018-05-13T08:53:16.453Z,7.50
2018-05-13T08:58:12.310Z,6.97
2018-05-13T09:03:08.197Z,6.22
2018-05-13T09:08:04.053Z,6.25
2018-05-13T09:13:00.109Z,6.32
2018-05-13T09:17:55.946Z,8.07
2018-05-13T09:22:51.870Z,6.07
2018-05-13T09:27:47.743Z,5.65
2018-05-13T09:32:43.647Z,6.65
2018-05-13T09:37:39.783Z,4.90
2018-05-13T09:42:35.650Z,7.03
2018-05-13T09:47:31.511Z,6.85
2018-05-13T09:52:27.451Z,8.60
2018-05-13T09:57:23.308Z,5.40
2018-05-13T10:02:19.139Z,4.45
2018-05-13T10:07:14.996Z,4.62
2018-05-13T10:12:10.853Z,5.12
2018-05-13T10:17:06.717Z,5.47
2018-05-13T10:22:02.621Z,13.73
2018-05-13T10:26:58.451Z,3.87
2018-05-13T10:31:54.591Z,6.35
2018-05-13T10:36:50.505Z,4.57
2018-05-13T10:41:46.353Z,9.05
2018-05-13T10:46:42.231Z,4.78
2018-05-13T10:51:38.100Z,5.15
2018-05-13T10:56:33.960Z,5.22
2018-05-13T11:01:29.846Z,6.95
2018-05-13T11:06:25.700Z,5.53
2018-05-13T11:11:21.528Z,9.13
2018-05-13T11:16:17.489Z,5.93
2018-05-13T11:21:13.336Z,9.68
2018-05-13T11:26:09.207Z,6.28
2018-05-13T11:31:05.097Z,5.87
2018-05-13T11:36:01.014Z,4.82
2018-05-13T11:40:56.879Z,4.45
2018-05-13T11:45:52.809Z,5.78
2018-05-13T11:50:48.716Z,5.65
2018-05-13T11:55:44.588Z,6.10
2018-05-13T12:00:40.484Z,5.68
2018-05-13T12:05:36.373Z,5.90
2018-05-13T12:10:32.229Z,5.37
2018-05-13T12:15:28.074Z,5.55
2018-05-13T12:20:23.938Z,5.95
2018-05-13T12:25:19.837Z,5.75
2018-05-13T12:30:15.721Z,6.50
2018-05-13T12:35:11.612Z,5.85
2018-05-13T12:40:07.503Z,5.30
2018-05-13T12:45:03.367Z,6.55
2018-05-13T12:49:59.258Z,6.75
2018-05-13T12:54:55.141Z,6.53
2018-05-13T12:59:51.841Z,5.82
2018-05-13T13:04:47.938Z,7.03
2018-05-13T13:09:43.802Z,5.43
2018-05-13T13:14:39.676Z,5.28
2018-05-13T13:19:35.606Z,5.53
2018-05-13T13:24:31.591Z,5.72
2018-05-13T13:29:27.539Z,6.68
2018-05-13T13:34:23.460Z,8.27
2018-05-13T13:39:19.299Z,7.93
2018-05-13T13:44:15.164Z,6.50
2018-05-13T13:49:11.053Z,6.40
2018-05-13T13:54:06.977Z,8.07
2018-05-13T13:59:02.913Z,7.45
2018-05-13T14:03:58.965Z,6.12
2018-05-13T14:08:54.815Z,7.93
2018-05-13T14:13:50.706Z,7.95
2018-05-13T14:18:46.590Z,35.85
2018-05-13T14:23:42.445Z,14.68
2018-05-13T14:28:38.287Z,7.82
2018-05-13T14:33:34.173Z,7.10
2018-05-13T14:43:46.408Z,22.00
2018-05-13T14:48:42.325Z,20.15
2018-05-13T14:53:38.222Z,18.60
2018-05-13T14:58:34.138Z,19.30
2018-05-13T15:03:30.001Z,16.40
2018-05-13T15:08:25.857Z,14.75
2018-05-13T15:13:21.725Z,13.68
2018-05-13T15:18:17.617Z,13.43
2018-05-13T15:23:13.522Z,12.07
2018-05-13T15:28:09.396Z,10.18
2018-05-13T15:33:05.284Z,9.73
2018-05-13T15:38:01.156Z,9.95
2018-05-13T15:42:57.300Z,10.05
2018-05-13T15:47:53.093Z,9.07
2018-05-13T15:52:48.969Z,9.20
2018-05-13T15:57:44.808Z,10.18
2018-05-13T16:02:40.704Z,9.60
2018-05-13T16:07:36.749Z,9.60
2018-05-13T16:12:32.672Z,7.40
2018-05-13T16:17:28.578Z,7.35
2018-05-13T16:22:24.449Z,8.18
2018-05-13T16:27:20.316Z,7.37
2018-05-13T16:32:16.222Z,12.37
2018-05-13T16:37:12.112Z,7.45
2018-05-13T16:42:08.018Z,7.57
2018-05-13T16:47:03.884Z,6.72
2018-05-13T16:51:59.800Z,7.10
2018-05-13T16:56:55.681Z,10.80
2018-05-13T17:01:51.537Z,6.00
2018-05-13T17:06:47.427Z,4.70
2018-05-13T17:11:43.317Z,5.30
2018-05-13T17:16:39.207Z,5.82
2018-05-13T17:21:35.083Z,4.62
2018-05-13T17:26:30.959Z,3.78
2018-05-13T17:31:26.912Z,12.88
2018-05-13T17:36:22.816Z,4.60
2018-05-13T17:41:18.759Z,9.85
2018-05-13T17:46:14.586Z,6.25
2018-05-13T17:51:10.454Z,8.48
2018-05-13T17:56:06.361Z,13.85
2018-05-13T18:01:02.303Z,12.40
2018-05-13T18:05:58.143Z,10.80
2018-05-13T18:10:54.012Z,11.77
2018-05-13T18:15:49.883Z,12.13
2018-05-13T18:20:45.787Z,12.32
2018-05-13T18:25:41.619Z,15.43
2018-05-13T18:30:37.650Z,13.95
2018-05-13T18:35:33.644Z,14.25
2018-05-13T18:40:29.545Z,15.23
2018-05-13T18:45:25.465Z,16.50
2018-05-13T18:50:21.478Z,17.27
2018-05-13T18:55:17.278Z,17.92
2018-05-13T19:00:13.156Z,17.10
2018-05-13T19:05:09.007Z,42.22
2018-05-13T19:10:04.883Z,27.37
2018-05-13T19:15:00.797Z,18.62
2018-05-13T19:19:56.682Z,19.07
2018-05-13T19:24:52.713Z,21.57
2018-05-13T19:29:48.465Z,22.47
2018-05-13T19:34:44.377Z,24.00
2018-05-13T19:39:40.257Z,23.63
2018-05-13T19:44:36.109Z,28.57
2018-05-13T19:49:31.971Z,29.93
2018-05-13T19:54:27.883Z,29.07
2018-05-13T19:59:23.757Z,30.97
2018-05-13T20:04:19.587Z,32.90
2018-05-13T20:09:15.467Z,29.23
2018-05-13T20:14:11.327Z,32.87
2018-05-13T20:19:07.182Z,31.23
2018-05-13T20:24:03.100Z,33.13
2018-05-13T20:28:58.964Z,33.80
2018-05-13T20:33:54.813Z,32.17
2018-05-13T20:38:50.806Z,28.63
2018-05-13T20:43:46.731Z,29.80
2018-05-13T20:48:42.579Z,27.63
2018-05-13T20:53:38.467Z,28.63
2018-05-13T20:58:34.340Z,25.80
2018-05-13T21:03:30.192Z,26.87
2018-05-13T21:08:26.070Z,25.57
2018-05-13T21:13:21.946Z,22.73
2018-05-13T21:18:17.782Z,23.90
2018-05-13T21:23:13.669Z,21.90
2018-05-13T21:28:09.548Z,22.13
2018-05-13T21:33:05.430Z,22.60
2018-05-13T21:38:01.526Z,23.03
2018-05-13T21:42:57.385Z,22.07
2018-05-13T21:47:53.314Z,22.37
2018-05-13T21:52:49.181Z,22.80
2018-05-13T21:57:45.048Z,21.30
2018-05-13T22:02:40.954Z,22.13
2018-05-13T22:07:36.816Z,24.27
2018-05-13T22:12:32.695Z,24.90
2018-05-13T22:17:28.624Z,23.10
2018-05-13T22:22:24.562Z,22.87
2018-05-13T22:27:20.445Z,23.87
2018-05-13T22:32:16.283Z,24.90
2018-05-13T22:37:12.110Z,24.90
2018-05-13T22:42:07.980Z,23.57
2018-05-13T22:47:03.840Z,23.43
2018-05-13T22:51:59.721Z,24.30
2018-05-13T22:56:55.555Z,23.40
2018-05-13T23:01:51.449Z,21.00
2018-05-13T23:06:47.313Z,23.73
2018-05-13T23:11:43.191Z,22.50
2018-05-13T23:16:39.073Z,21.23
2018-05-13T23:21:34.952Z,20.40
2018-05-13T23:26:30.878Z,19.30
2018-05-13T23:31:26.727Z,19.73
2018-05-13T23:36:22.579Z,18.67
2018-05-13T23:41:18.534Z,18.43
2018-05-13T23:46:14.344Z,17.63
2018-05-13T23:51:10.221Z,19.57
2018-05-13T23:56:06.067Z,18.10
